Wetherby, United Kingdom
Current Conditions -  °F | °C
As of 8:50 AM on Saturday 22 Nov 2014 (Local Time) from EGXU Reporting Station
Overcast Overcast  
Wind Chill: 45°   Ceiling: Unl
Heat Index: 48°   Visibility: 0.21mi
Dew Point: 48°   Wind: 8mph
Humidity: 100%   Direction: 150°SSE
Pressure: 29.8"   Gusts: NA
Location:  53.93°N, 1.39°W
Report Text: EGXU 220850Z AUTO 15007KT 0350 // VV/// 09/09 Q1009
Loading
Personal Weather Stations






























Interactive Weather Map New forecast layout! Learn more

10-Day Weather Forecast

Advertisements
Track Severe Weather on mobile